Scotia — MXHR6 — position and weather

sailwx.info

Track history (hours):
 
Tides and Currents Weather Stations Pressure Air Temp Water Temp Dewpoint Dewpoint Depression Visibility Wind Speed Wind Dir Waves Ship Positions

Oceanographic research ship Scotia (UK)

Detailed information on ship capabilities available from University of Delaware's Ocean Information Center.

Last reported at 2019-Apr-18 10:48 UTC. Time now 2019-Apr-19 10:47 UTC.
Position N 58°52' W 001°60'.

Length 68.6 m; beam 15 m; draft 5.6 m.

Type: Other ship. MMSI: 234973000.

Date/timePositionNaut miles runAvg speedWind from/ knotsBaromVisibWave heightAir tempDewpointWater temp
2019-Apr-18 10:48N 58°52' W 001°60'96 9.9
2019-Apr-18 01:02N 57°16' W 001°45'0 9.5
2019-Apr-18 01:00N 57°16' W 001°45'5 9.8
2019-Apr-18 00:31N 57°12' W 001°48'5 9.6
2019-Apr-18 00:00N 57°07' W 001°51'5 9.4
2019-Apr-17 23:31N 57°03' W 001°54'5 9.4
2019-Apr-17 23:00N 56°58' W 001°57'5010.5
2019-Apr-17 18:15N 56°13' W 002°34'311.5
2019-Apr-17 18:00N 56°11' W 002°39'611.3
2019-Apr-17 17:31N 56°08' W 002°47'611.2
2019-Apr-17 17:00N 56°05' W 002°56'611.4
2019-Apr-17 16:30N 56°02' W 003°04'4 9.0
2019-Apr-17 16:00N 55°60' W 003°11'0 0.5
2019-Apr-17 15:29N 55°59' W 003°11'1 1.0
2019-Apr-17 14:47N 55°59' W 003°10'0 0.0
2019-Apr-17 14:29N 55°59' W 003°10'0 0.0
2019-Apr-17 13:59N 55°59' W 003°10'0 0.0
2019-Apr-17 13:29N 55°59' W 003°10'0 0.0
2019-Apr-17 12:17N 55°59' W 003°10'0 0.0
2019-Apr-17 11:59N 55°59' W 003°10'0 0.0
2019-Apr-17 11:26N 55°59' W 003°10'0 0.0
2019-Apr-17 10:53N 55°59' W 003°10'0 0.0
2019-Apr-17 10:29N 55°59' W 003°10'0 0.0
2019-Apr-17 09:59N 55°59' W 003°10'0 0.0
2019-Apr-17 09:29N 55°59' W 003°10'0 0.0
2019-Apr-17 08:59N 55°59' W 003°10'0 0.0
2019-Apr-17 08:29N 55°59' W 003°10'0 0.0
2019-Apr-17 07:59N 55°59' W 003°10'0 0.0
2019-Apr-17 07:26N 55°59' W 003°10'0 0.0
2019-Apr-17 06:59N 55°59' W 003°10'0 0.0
2019-Apr-17 06:29N 55°59' W 003°10'0 0.0
2019-Apr-17 05:59N 55°59' W 003°10'0 0.0
2019-Apr-17 05:29N 55°59' W 003°10'0 0.0
2019-Apr-17 04:59N 55°59' W 003°10'0 0.0
2019-Apr-17 04:29N 55°59' W 003°10'0 0.0
2019-Apr-17 03:59N 55°59' W 003°10'0 0.0
2019-Apr-17 03:29N 55°59' W 003°10'0 0.0
2019-Apr-17 02:59N 55°59' W 003°10'0 0.0
2019-Apr-17 02:29N 55°59' W 003°10'0 0.0
2019-Apr-17 01:59N 55°59' W 003°10'0 0.0
2019-Apr-17 01:29N 55°59' W 003°10'0 0.0
2019-Apr-17 00:59N 55°59' W 003°10'0 0.0
2019-Apr-17 00:29N 55°59' W 003°10'0 0.0
2019-Apr-16 23:59N 55°59' W 003°10'0 0.0
2019-Apr-16 23:29N 55°59' W 003°10'0 0.0
2019-Apr-16 22:59N 55°59' W 003°10'0 0.0
2019-Apr-16 22:29N 55°59' W 003°10'0 0.0
2019-Apr-16 21:59N 55°59' W 003°10'0 0.0
2019-Apr-16 21:29N 55°59' W 003°10'0 0.0
2019-Apr-16 20:59N 55°59' W 003°10'0 0.0
2019-Apr-16 20:26N 55°59' W 003°10'0 0.0
2019-Apr-16 19:35N 55°59' W 003°10'0 0.0
2019-Apr-16 19:29N 55°59' W 003°10'0 0.0
2019-Apr-16 18:53N 55°59' W 003°10'0 0.0
2019-Apr-16 18:29N 55°59' W 003°10'0 0.0
2019-Apr-16 17:59N 55°59' W 003°10'0 0.0
2019-Apr-16 17:08N 55°59' W 003°10'0 0.0
2019-Apr-16 16:56N 55°59' W 003°10'0 0.0
2019-Apr-16 16:20N 55°59' W 003°10'0 0.0
2019-Apr-16 15:59N 55°59' W 003°10'0 0.0
2019-Apr-16 15:26N 55°59' W 003°10'0 0.0
2019-Apr-16 14:59N 55°59' W 003°10'0 0.0
2019-Apr-16 14:29N 55°59' W 003°10'0 0.0
2019-Apr-16 13:59N 55°59' W 003°10'0 0.0
2019-Apr-16 13:29N 55°59' W 003°10'0 0.0
2019-Apr-16 12:56N 55°59' W 003°10'0 0.0
2019-Apr-16 12:29N 55°59' W 003°10'0 0.0
2019-Apr-16 11:59N 55°59' W 003°10'0 0.0
2019-Apr-16 11:29N 55°59' W 003°10'0 0.0
2019-Apr-16 10:53N 55°59' W 003°10'0 0.0
2019-Apr-16 10:26N 55°59' W 003°10'0 0.0
2019-Apr-16 09:56N 55°59' W 003°10'0 0.0
2019-Apr-16 09:29N 55°59' W 003°10'0 0.0
2019-Apr-16 08:59N 55°59' W 003°10'0 0.0
2019-Apr-16 08:29N 55°59' W 003°10'0 0.0
2019-Apr-16 07:59N 55°59' W 003°10'0 0.0
2019-Apr-16 07:29N 55°59' W 003°10'0 0.0
2019-Apr-16 06:59N 55°59' W 003°10'0 0.0
2019-Apr-16 06:29N 55°59' W 003°10'0 0.0
2019-Apr-16 05:59N 55°59' W 003°10'0 0.0
2019-Apr-16 05:29N 55°59' W 003°10'0 0.0
2019-Apr-16 04:59N 55°59' W 003°10'0 0.0
2019-Apr-16 04:29N 55°59' W 003°10'0 0.0
2019-Apr-16 03:59N 55°59' W 003°10'0 0.0
2019-Apr-16 03:29N 55°59' W 003°10'0 0.0
2019-Apr-16 02:59N 55°59' W 003°10'0 0.0
2019-Apr-16 02:29N 55°59' W 003°10'0 0.0
2019-Apr-16 01:59N 55°59' W 003°10'0 0.0
2019-Apr-16 01:29N 55°59' W 003°10'0 0.0
2019-Apr-16 00:59N 55°59' W 003°10'0 0.0
2019-Apr-16 00:29N 55°59' W 003°10'0 0.0
2019-Apr-15 23:59N 55°59' W 003°10'0 0.0
2019-Apr-15 23:29N 55°59' W 003°10'0 0.0
2019-Apr-15 22:59N 55°59' W 003°10'0 0.0
2019-Apr-15 22:29N 55°59' W 003°10'0 0.0
2019-Apr-15 21:56N 55°59' W 003°10'0 0.0
2019-Apr-15 21:29N 55°59' W 003°10'0 0.0
2019-Apr-15 20:59N 55°59' W 003°10'0 0.0
2019-Apr-15 20:29N 55°59' W 003°10'0 0.0
2019-Apr-15 19:59N 55°59' W 003°10'0 0.0
2019-Apr-15 19:29N 55°59' W 003°10'0 0.0
2019-Apr-15 18:59N 55°59' W 003°10'0 0.0
2019-Apr-15 18:29N 55°59' W 003°10'0 0.0
2019-Apr-15 17:59N 55°59' W 003°10'0 0.0
2019-Apr-15 17:29N 55°59' W 003°10'0 0.0
2019-Apr-15 16:59N 55°59' W 003°10'0 0.0
2019-Apr-15 16:29N 55°59' W 003°10'0 0.0
2019-Apr-15 15:56N 55°59' W 003°10'0 0.0
2019-Apr-15 15:29N 55°59' W 003°10'0 0.0
2019-Apr-15 14:59N 55°59' W 003°10'0 0.0
2019-Apr-15 14:29N 55°59' W 003°10'0 0.0
2019-Apr-15 13:56N 55°59' W 003°10'0 0.0
2019-Apr-15 13:29N 55°59' W 003°10'0 0.0
2019-Apr-15 12:59N 55°59' W 003°10'0 0.0
2019-Apr-15 12:29N 55°59' W 003°10'0 0.0
2019-Apr-15 11:59N 55°59' W 003°10'0 0.0
2019-Apr-15 11:29N 55°59' W 003°10'0 0.0
2019-Apr-15 10:59N 55°59' W 003°10'0 0.0
2019-Apr-15 10:29N 55°59' W 003°10'0 0.0
2019-Apr-15 09:47N 55°59' W 003°10'0 0.0
2019-Apr-15 09:29N 55°59' W 003°10'0 0.0
2019-Apr-15 08:59N 55°59' W 003°10'0 0.0
2019-Apr-15 08:29N 55°59' W 003°10'0 0.0
2019-Apr-15 07:59N 55°59' W 003°10'0 0.0
2019-Apr-15 07:26N 55°59' W 003°10'0 0.0
2019-Apr-15 06:59N 55°59' W 003°10'0 0.0
2019-Apr-15 06:29N 55°59' W 003°10'0 0.0
2019-Apr-15 05:59N 55°59' W 003°10'0 0.0
2019-Apr-15 05:29N 55°59' W 003°10'0 0.0
2019-Apr-15 04:59N 55°59' W 003°10'0 0.0
2019-Apr-15 04:08N 55°59' W 003°10'0 0.0
2019-Apr-15 03:50N 55°59' W 003°10'0 0.0
2019-Apr-15 03:14N 55°59' W 003°10'0 0.0
2019-Apr-15 02:59N 55°59' W 003°10'0 0.0
2019-Apr-15 02:29N 55°59' W 003°10'0 0.0
2019-Apr-15 01:59N 55°59' W 003°10'0 0.0
2019-Apr-15 01:29N 55°59' W 003°10'0 0.0
2019-Apr-15 00:56N 55°59' W 003°10'0 0.0
2019-Apr-15 00:29N 55°59' W 003°10'0 0.0
2019-Apr-14 23:59N 55°59' W 003°10'0 0.0
2019-Apr-14 23:29N 55°59' W 003°10'0 0.0
2019-Apr-14 22:59N 55°59' W 003°10'0 0.0
2019-Apr-14 22:29N 55°59' W 003°10'0 0.0
2019-Apr-14 21:59N 55°59' W 003°10'0 0.0
2019-Apr-14 21:29N 55°59' W 003°10'0 0.0
2019-Apr-14 20:59N 55°59' W 003°10'0 0.0
2019-Apr-14 20:29N 55°59' W 003°10'0 0.0
2019-Apr-14 19:59N 55°59' W 003°10'0 0.0
2019-Apr-14 19:29N 55°59' W 003°10'0 0.0
2019-Apr-14 18:59N 55°59' W 003°10'0 0.0
2019-Apr-14 18:26N 55°59' W 003°10'0 0.0
2019-Apr-14 17:56N 55°59' W 003°10'0 0.0
2019-Apr-14 17:29N 55°59' W 003°10'0 0.0
2019-Apr-14 16:59N 55°59' W 003°10'0 0.0
2019-Apr-14 16:29N 55°59' W 003°10'0 0.0
2019-Apr-14 15:56N 55°59' W 003°10'0 0.0
2019-Apr-14 15:29N 55°59' W 003°10'0 0.0
2019-Apr-14 14:59N 55°59' W 003°10'0 0.0
2019-Apr-14 14:29N 55°59' W 003°10'0 0.0
2019-Apr-14 13:59N 55°59' W 003°10'0 0.0
2019-Apr-14 13:29N 55°59' W 003°10'0 0.0
2019-Apr-14 12:47N 55°59' W 003°10'0 0.0
2019-Apr-14 12:05N 55°59' W 003°10'0 0.0
2019-Apr-14 11:26N 55°59' W 003°10'0 0.0
2019-Apr-14 10:56N 55°59' W 003°10'0 0.0
2019-Apr-14 10:29N 55°59' W 003°10'0 0.0
2019-Apr-14 09:59N 55°59' W 003°10'0 0.0
2019-Apr-14 09:29N 55°59' W 003°10'0 0.0
2019-Apr-14 08:41N 55°59' W 003°10'0 0.0
2019-Apr-14 08:17N 55°59' W 003°10'0 0.0
2019-Apr-14 07:59N 55°59' W 003°10'0 0.0
2019-Apr-14 07:29N 55°59' W 003°10'0 0.0
2019-Apr-14 06:59N 55°59' W 003°10'0 0.0
2019-Apr-14 06:29N 55°59' W 003°10'0 0.0
2019-Apr-14 05:59N 55°59' W 003°10'0 0.0
2019-Apr-14 05:29N 55°59' W 003°10'0 0.0
2019-Apr-14 04:56N 55°59' W 003°10'0 0.0
2019-Apr-14 04:29N 55°59' W 003°10'0 0.0
2019-Apr-14 03:59N 55°59' W 003°10'0 0.0
2019-Apr-14 03:29N 55°59' W 003°10'0 0.0
2019-Apr-14 02:59N 55°59' W 003°10'0 0.0
2019-Apr-14 02:29N 55°59' W 003°10'0 0.0
2019-Apr-14 01:59N 55°59' W 003°10'0 0.0
2019-Apr-14 01:29N 55°59' W 003°10'0 0.0
2019-Apr-14 00:59N 55°59' W 003°10'0 0.0
2019-Apr-14 00:29N 55°59' W 003°10'0 0.0
2019-Apr-13 23:59N 55°59' W 003°10'0 0.0
2019-Apr-13 23:29N 55°59' W 003°10'0 0.0
2019-Apr-13 22:56N 55°59' W 003°10'0 0.0
2019-Apr-13 22:29N 55°59' W 003°10'0 0.0
2019-Apr-13 21:59N 55°59' W 003°10'0 0.0
2019-Apr-13 21:29N 55°59' W 003°10'0 0.0
2019-Apr-13 20:59N 55°59' W 003°10'0 0.0
2019-Apr-13 20:26N 55°59' W 003°10'0 0.0
2019-Apr-13 19:59N 55°59' W 003°10'0 0.0
2019-Apr-13 19:29N 55°59' W 003°10'0 0.0
2019-Apr-13 18:59N 55°59' W 003°10'0 0.0
2019-Apr-13 18:29N 55°59' W 003°10'0 0.0
2019-Apr-13 17:56N 55°59' W 003°10'0 0.0
2019-Apr-13 17:29N 55°59' W 003°10'0 0.0
2019-Apr-13 16:59N 55°59' W 003°10'0 0.0
2019-Apr-13 16:29N 55°59' W 003°10'0 0.0
2019-Apr-13 15:59N 55°59' W 003°10'0 0.0
2019-Apr-13 15:29N 55°59' W 003°10'0 0.0
2019-Apr-13 14:59N 55°59' W 003°10'0 0.0
2019-Apr-13 14:29N 55°59' W 003°10'0 0.0
2019-Apr-13 13:59N 55°59' W 003°10'0 0.0
2019-Apr-13 13:29N 55°59' W 003°10'0 0.0
2019-Apr-13 12:59N 55°59' W 003°10'0 0.0
2019-Apr-13 12:23N 55°59' W 003°10'0 0.0
2019-Apr-13 11:59N 55°59' W 003°10'0 0.0
2019-Apr-13 11:29N 55°59' W 003°10'0 0.0
2019-Apr-13 10:59N 55°59' W 003°10'0 0.0
2019-Apr-13 10:29N 55°59' W 003°10'0 0.0
2019-Apr-13 09:59N 55°59' W 003°10'0 0.0
2019-Apr-13 09:29N 55°59' W 003°10'0 0.0
2019-Apr-13 08:59N 55°59' W 003°10'0 0.0
2019-Apr-13 08:26N 55°59' W 003°10'0 0.0
2019-Apr-13 07:44N 55°59' W 003°10'0 0.0
2019-Apr-13 07:23N 55°59' W 003°10'0 0.0
2019-Apr-13 06:59N 55°59' W 003°10'0 0.0
2019-Apr-13 06:17N 55°59' W 003°10'0 0.0
2019-Apr-13 05:53N 55°59' W 003°10'0 0.0
2019-Apr-13 05:29N 55°59' W 003°10'0 0.0
2019-Apr-13 04:59N 55°59' W 003°10'0 0.0
2019-Apr-13 04:29N 55°59' W 003°10'0 0.0
2019-Apr-13 03:59N 55°59' W 003°10'0 0.0
2019-Apr-13 03:20N 55°59' W 003°10'0 0.0
2019-Apr-13 02:50N 55°59' W 003°10'0 0.0
2019-Apr-13 02:26N 55°59' W 003°10'0 0.0
2019-Apr-13 01:59N 55°59' W 003°10'0 0.0
2019-Apr-13 01:29N 55°59' W 003°10'0 0.0
2019-Apr-13 00:59N 55°59' W 003°10'0 0.0
2019-Apr-13 00:26N 55°59' W 003°10'0 0.0
2019-Apr-12 23:59N 55°59' W 003°10'0 0.0
2019-Apr-12 23:26N 55°59' W 003°10'0 0.0
2019-Apr-12 22:56N 55°59' W 003°10'0 0.0
2019-Apr-12 22:29N 55°59' W 003°10'0 0.0
2019-Apr-12 21:59N 55°59' W 003°10'0 0.0
2019-Apr-12 21:29N 55°59' W 003°10'0 0.0
2019-Apr-12 20:59N 55°59' W 003°10'0 0.0
2019-Apr-12 20:20N 55°59' W 003°10'0 0.0
2019-Apr-12 19:59N 55°59' W 003°10'0 0.0
2019-Apr-12 19:29N 55°59' W 003°10'0 0.0
2019-Apr-12 18:32N 55°59' W 003°10'0 0.0
2019-Apr-12 18:26N 55°59' W 003°10'0 0.0
2019-Apr-12 17:59N 55°59' W 003°10'0 0.0
2019-Apr-12 17:29N 55°59' W 003°10'0 0.0
2019-Apr-12 16:59N 55°59' W 003°10'0 0.0
2019-Apr-12 16:29N 55°59' W 003°10'0 0.0
2019-Apr-12 15:59N 55°59' W 003°10'0 0.0
2019-Apr-12 15:29N 55°59' W 003°10'0 0.0
2019-Apr-12 14:59N 55°59' W 003°10'0 0.0
2019-Apr-12 14:29N 55°59' W 003°10'0 0.0
2019-Apr-12 13:59N 55°59' W 003°10'0 0.0
2019-Apr-12 13:23N 55°59' W 003°10'0 0.0
2019-Apr-12 12:59N 55°59' W 003°10'0 0.0
2019-Apr-12 12:29N 55°59' W 003°10'0 0.0
2019-Apr-12 11:41N 55°59' W 003°10'0 0.0
2019-Apr-12 08:20N 55°59' W 003°10'0 0.0
2019-Apr-12 07:59N 55°59' W 003°10'0 0.0
2019-Apr-12 07:26N 55°59' W 003°10'0 0.0
2019-Apr-12 06:59N 55°59' W 003°10'0 0.0
2019-Apr-12 06:29N 55°59' W 003°10'0 0.0
2019-Apr-12 05:56N 55°59' W 003°10'0 0.0
2019-Apr-12 05:29N 55°59' W 003°10'0 0.0
2019-Apr-12 04:53N 55°59' W 003°10'0 0.0
2019-Apr-12 04:29N 55°59' W 003°10'0 0.0
2019-Apr-12 03:59N 55°59' W 003°10'0 0.0
2019-Apr-12 03:23N 55°59' W 003°10'0 0.0
2019-Apr-12 02:23N 55°59' W 003°10'0 0.0
2019-Apr-12 01:59N 55°59' W 003°10'0 0.0
2019-Apr-12 01:23N 55°59' W 003°10'0 0.0
2019-Apr-12 00:59N 55°59' W 003°10'0 0.0
2019-Apr-12 00:29N 55°59' W 003°10'0 0.0
2019-Apr-11 23:59N 55°59' W 003°10'0 0.0
2019-Apr-11 23:29N 55°59' W 003°10'0 0.0
2019-Apr-11 22:53N 55°59' W 003°10'0 0.0
2019-Apr-11 22:29N 55°59' W 003°10'0 0.0
2019-Apr-11 21:59N 55°59' W 003°10'0 0.0
2019-Apr-11 21:29N 55°59' W 003°10'0 0.0
2019-Apr-11 20:59N 55°59' W 003°10'0 0.0
2019-Apr-11 20:29N 55°59' W 003°10'0 0.0
2019-Apr-11 19:59N 55°59' W 003°10'0 0.0
2019-Apr-11 19:29N 55°59' W 003°10'0 0.0
2019-Apr-11 18:59N 55°59' W 003°10'0 0.0
2019-Apr-11 18:26N 55°59' W 003°10'0 0.0
2019-Apr-11 17:59N 55°59' W 003°10'0 0.0
2019-Apr-11 17:29N 55°59' W 003°10'0 0.0
2019-Apr-11 16:59N 55°59' W 003°10'0 0.0
2019-Apr-11 16:29N 55°59' W 003°10'0 0.0
2019-Apr-11 15:59N 55°59' W 003°10'0 0.0
2019-Apr-11 15:29N 55°59' W 003°10'0 0.0
2019-Apr-11 14:56N 55°59' W 003°10'0 0.0
2019-Apr-11 14:29N 55°59' W 003°10'0 0.0
2019-Apr-11 13:59N 55°59' W 003°10'0 0.0
2019-Apr-11 13:29N 55°59' W 003°10'0 0.0
2019-Apr-11 12:59N 55°59' W 003°10'0 0.0
2019-Apr-11 12:29N 55°59' W 003°10'0 0.0
2019-Apr-11 11:59N 55°59' W 003°10'0 0.0
2019-Apr-11 11:20N 55°59' W 003°10'0 0.0
2019-Apr-11 10:59N 55°59' W 003°10'0 0.0
2019-Apr-11 10:26N 55°59' W 003°10'0 0.0
2019-Apr-11 09:47N 55°59' W 003°10'0 0.0
2019-Apr-11 09:29N 55°59' W 003°10'0 0.0
2019-Apr-11 08:29N 55°59' W 003°10'0 0.0
2019-Apr-11 07:53N 55°59' W 003°10'0 0.0
2019-Apr-11 07:29N 55°59' W 003°10'0 0.0
2019-Apr-11 06:59N 55°59' W 003°10'0 0.0
2019-Apr-11 06:29N 55°59' W 003°10'0 0.0
2019-Apr-11 05:59N 55°59' W 003°10'0 0.0
2019-Apr-11 05:23N 55°59' W 003°10'0 0.0
2019-Apr-11 04:59N 55°59' W 003°10'0 0.0
2019-Apr-11 04:29N 55°59' W 003°10'0 0.0
2019-Apr-11 03:59N 55°59' W 003°10'0 0.0
2019-Apr-11 03:26N 55°59' W 003°10'0 0.0
2019-Apr-11 02:41N 55°59' W 003°10'0 0.0
2019-Apr-11 02:29N 55°59' W 003°10'0 0.0
2019-Apr-11 01:53N 55°59' W 003°10'0 0.0
2019-Apr-11 01:26N 55°59' W 003°10'0 0.0
2019-Apr-11 00:59N 55°59' W 003°10'0 0.0
2019-Apr-11 00:29N 55°59' W 003°10'0 0.0
2019-Apr-10 23:59N 55°59' W 003°10'0 0.0
2019-Apr-10 23:23N 55°59' W 003°10'0 0.0
2019-Apr-10 22:59N 55°59' W 003°10'0 0.0
2019-Apr-10 22:29N 55°59' W 003°10'0 0.0
2019-Apr-10 21:53N 55°59' W 003°10'0 0.0
2019-Apr-10 21:29N 55°59' W 003°10'0 0.0
2019-Apr-10 20:59N 55°59' W 003°10'0 0.0
2019-Apr-10 20:29N 55°59' W 003°10'0 0.0
2019-Apr-10 19:59N 55°59' W 003°10'0 0.0
2019-Apr-10 19:29N 55°59' W 003°10'0 0.0
2019-Apr-10 18:59N 55°59' W 003°10'0 0.0
2019-Apr-10 18:26N 55°59' W 003°10'0 0.0
2019-Apr-10 17:59N 55°59' W 003°10'0 0.0
2019-Apr-10 17:29N 55°59' W 003°10'0 0.0
2019-Apr-10 16:59N 55°59' W 003°10'0 0.0
2019-Apr-10 16:29N 55°59' W 003°10'0 0.0
2019-Apr-10 15:47N 55°59' W 003°10'0 0.0
2019-Apr-10 15:23N 55°59' W 003°10'0 0.0
2019-Apr-10 14:59N 55°59' W 003°10'0 0.0
2019-Apr-10 14:26N 55°59' W 003°10'0 0.0
2019-Apr-10 13:59N 55°59' W 003°10'0 0.0
2019-Apr-10 13:29N 55°59' W 003°10'0 0.0
2019-Apr-10 12:59N 55°59' W 003°10'0 0.0
2019-Apr-10 12:29N 55°59' W 003°10'0 0.0
2019-Apr-10 11:59N 55°59' W 003°10'0 0.0
2019-Apr-10 11:29N 55°59' W 003°10'0 0.0
2019-Apr-10 10:59N 55°59' W 003°10'0 0.0
2019-Apr-10 10:23N 55°59' W 003°10'0 0.0
2019-Apr-10 09:59N 55°59' W 003°10'0 0.0
2019-Apr-10 09:11N 55°59' W 003°10'0 0.0
2019-Apr-10 08:59N 55°59' W 003°10'0 0.0
2019-Apr-10 08:20N 55°59' W 003°10'0 0.0
2019-Apr-10 07:47N 55°59' W 003°10'0 0.0
2019-Apr-10 07:20N 55°59' W 003°10'0 0.0
2019-Apr-10 05:05N 55°59' W 003°10'0 0.0
2019-Apr-10 04:14N 55°59' W 003°10'0 0.0
2019-Apr-10 02:32N 55°59' W 003°10'0 0.0
2019-Apr-10 01:05N 55°59' W 003°10'0 0.0
2019-Apr-10 00:56N 55°59' W 003°10'0 0.0
2019-Apr-10 00:29N 55°59' W 003°10'0 0.0
2019-Apr-09 23:59N 55°59' W 003°10'0 0.0
2019-Apr-09 23:29N 55°59' W 003°10'0 0.0
2019-Apr-09 22:59N 55°59' W 003°10'0 0.0
2019-Apr-09 22:26N 55°59' W 003°10'0 0.0
2019-Apr-09 21:59N 55°59' W 003°10'0 0.0
2019-Apr-09 21:29N 55°59' W 003°10'0 0.0
2019-Apr-09 20:59N 55°59' W 003°10'0 0.0
2019-Apr-09 20:29N 55°59' W 003°10'0 0.0
2019-Apr-09 19:53N 55°59' W 003°10'0 0.0
2019-Apr-09 19:26N 55°59' W 003°10'0 0.0
2019-Apr-09 18:59N 55°59' W 003°10'0 0.0
2019-Apr-09 18:14N 55°59' W 003°10'0 0.0
2019-Apr-09 17:59N 55°59' W 003°10'0 0.0
2019-Apr-09 17:29N 55°59' W 003°10'0 0.0
2019-Apr-09 16:56N 55°59' W 003°10'0 0.0
2019-Apr-09 16:23N 55°59' W 003°10'0 0.0
2019-Apr-09 15:53N 55°59' W 003°10'0 0.0
2019-Apr-09 15:26N 55°59' W 003°10'0 0.0
2019-Apr-09 14:59N 55°59' W 003°10'0 0.0
2019-Apr-09 14:29N 55°59' W 003°10'0 0.0
2019-Apr-09 13:59N 55°59' W 003°10'0 0.0
2019-Apr-09 13:29N 55°59' W 003°10'0 0.0
2019-Apr-09 12:59N 55°59' W 003°10'0 0.0
2019-Apr-09 12:29N 55°59' W 003°10'0 0.0
2019-Apr-09 11:56N 55°59' W 003°10'0 0.0
2019-Apr-09 11:29N 55°59' W 003°10'0 0.0
2019-Apr-09 10:59N 55°59' W 003°10'0 0.0
2019-Apr-09 10:29N 55°59' W 003°10'0 0.0
2019-Apr-09 09:53N 55°59' W 003°10'0 0.0
2019-Apr-09 09:29N 55°59' W 003°10'0 0.0
2019-Apr-09 08:59N 55°59' W 003°10'0 0.0
2019-Apr-09 08:29N 55°59' W 003°10'0 0.0
2019-Apr-09 07:59N 55°59' W 003°10'0 0.0
2019-Apr-09 07:23N 55°59' W 003°10'0 0.0
2019-Apr-09 06:59N 55°59' W 003°10'0 0.0
2019-Apr-09 06:29N 55°59' W 003°10'0 0.0
2019-Apr-09 05:56N 55°59' W 003°10'0 0.0
2019-Apr-09 05:26N 55°59' W 003°10'0 0.0
2019-Apr-09 04:59N 55°59' W 003°10'0 0.0
2019-Apr-09 04:26N 55°59' W 003°10'0 0.0
2019-Apr-09 03:59N 55°59' W 003°10'0 0.0
2019-Apr-09 03:29N 55°59' W 003°10'0 0.0
2019-Apr-09 02:59N 55°59' W 003°10'0 0.0
2019-Apr-09 02:26N 55°59' W 003°10'0 0.0
2019-Apr-09 01:56N 55°59' W 003°10'0 0.0
2019-Apr-09 01:29N 55°59' W 003°10'0 0.0
2019-Apr-09 00:56N 55°59' W 003°10'0 0.0
2019-Apr-09 00:29N 55°59' W 003°10'0 0.0
2019-Apr-08 23:59N 55°59' W 003°10'0 0.0
2019-Apr-08 23:29N 55°59' W 003°10'0 0.0
2019-Apr-08 22:59N 55°59' W 003°10'0 0.0
2019-Apr-08 22:29N 55°59' W 003°10'0 0.0
2019-Apr-08 21:59N 55°59' W 003°10'0 0.0
2019-Apr-08 21:29N 55°59' W 003°10'0 0.0
2019-Apr-08 20:56N 55°59' W 003°10'0 0.0
2019-Apr-08 20:26N 55°59' W 003°10'0 0.0
2019-Apr-08 19:56N 55°59' W 003°10'0 0.0
2019-Apr-08 19:26N 55°59' W 003°10'0 0.0
2019-Apr-08 18:56N 55°59' W 003°10'0 0.0
2019-Apr-08 18:20N 55°59' W 003°10'0 0.0
2019-Apr-08 17:56N 55°59' W 003°10'0 0.0
2019-Apr-08 17:29N 55°59' W 003°10'0 0.0
2019-Apr-08 16:56N 55°59' W 003°10'0 0.0
2019-Apr-08 16:29N 55°59' W 003°10'0 0.0
2019-Apr-08 15:59N 55°59' W 003°10'0 0.0
2019-Apr-08 15:29N 55°59' W 003°10'0 0.0
2019-Apr-08 14:50N 55°59' W 003°10'0 0.0
2019-Apr-08 14:29N 55°59' W 003°10'0 0.0
2019-Apr-08 13:59N 55°59' W 003°10'0 0.0
2019-Apr-08 13:05N 55°59' W 003°10'0 0.0
2019-Apr-08 12:59N 55°59' W 003°10'0 0.0
2019-Apr-08 12:29N 55°59' W 003°10'0 0.0
2019-Apr-08 11:59N 55°59' W 003°10'0 0.0
2019-Apr-08 11:29N 55°59' W 003°10'0 0.0
2019-Apr-08 10:56N 55°59' W 003°10'  
Track history (hours):
 
Tides and Currents Weather Stations Pressure Air Temp Water Temp Dewpoint Dewpoint Depression Visibility Wind Speed Wind Dir Waves Ship Positions

Oceanographic research ship Scotia (UK)

Detailed information on ship capabilities available from University of Delaware's Ocean Information Center.

Last reported at 2019-Apr-18 10:48 UTC. Time now 2019-Apr-19 10:47 UTC.
Position N 58°52' W 001°60'.

Length 68.6 m; beam 15 m; draft 5.6 m.

Type: Other ship. MMSI: 234973000.

Date/timePositionNaut miles runAvg speedWind from/ knotsBaromVisibWave heightAir tempDewpointWater temp
2019-Apr-18 10:48N 58°52' W 001°60'96 9.9
2019-Apr-18 01:02N 57°16' W 001°45'0 9.5
2019-Apr-18 01:00N 57°16' W 001°45'5 9.8
2019-Apr-18 00:31N 57°12' W 001°48'5 9.6
2019-Apr-18 00:00N 57°07' W 001°51'5 9.4
2019-Apr-17 23:31N 57°03' W 001°54'5 9.4
2019-Apr-17 23:00N 56°58' W 001°57'5010.5
2019-Apr-17 18:15N 56°13' W 002°34'311.5
2019-Apr-17 18:00N 56°11' W 002°39'611.3
2019-Apr-17 17:31N 56°08' W 002°47'611.2
2019-Apr-17 17:00N 56°05' W 002°56'611.4
2019-Apr-17 16:30N 56°02' W 003°04'4 9.0
2019-Apr-17 16:00N 55°60' W 003°11'0 0.5
2019-Apr-17 15:29N 55°59' W 003°11'1 1.0
2019-Apr-17 14:47N 55°59' W 003°10'0 0.0
2019-Apr-17 14:29N 55°59' W 003°10'0 0.0
2019-Apr-17 13:59N 55°59' W 003°10'0 0.0
2019-Apr-17 13:29N 55°59' W 003°10'0 0.0
2019-Apr-17 12:17N 55°59' W 003°10'0 0.0
2019-Apr-17 11:59N 55°59' W 003°10'0 0.0
2019-Apr-17 11:26N 55°59' W 003°10'0 0.0
2019-Apr-17 10:53N 55°59' W 003°10'0 0.0
2019-Apr-17 10:29N 55°59' W 003°10'0 0.0
2019-Apr-17 09:59N 55°59' W 003°10'0 0.0
2019-Apr-17 09:29N 55°59' W 003°10'0 0.0
2019-Apr-17 08:59N 55°59' W 003°10'0 0.0
2019-Apr-17 08:29N 55°59' W 003°10'0 0.0
2019-Apr-17 07:59N 55°59' W 003°10'0 0.0
2019-Apr-17 07:26N 55°59' W 003°10'0 0.0
2019-Apr-17 06:59N 55°59' W 003°10'0 0.0
2019-Apr-17 06:29N 55°59' W 003°10'0 0.0
2019-Apr-17 05:59N 55°59' W 003°10'0 0.0
2019-Apr-17 05:29N 55°59' W 003°10'0 0.0
2019-Apr-17 04:59N 55°59' W 003°10'0 0.0
2019-Apr-17 04:29N 55°59' W 003°10'0 0.0
2019-Apr-17 03:59N 55°59' W 003°10'0 0.0
2019-Apr-17 03:29N 55°59' W 003°10'0 0.0
2019-Apr-17 02:59N 55°59' W 003°10'0 0.0
2019-Apr-17 02:29N 55°59' W 003°10'0 0.0
2019-Apr-17 01:59N 55°59' W 003°10'0 0.0
2019-Apr-17 01:29N 55°59' W 003°10'0 0.0
2019-Apr-17 00:59N 55°59' W 003°10'0 0.0
2019-Apr-17 00:29N 55°59' W 003°10'0 0.0
2019-Apr-16 23:59N 55°59' W 003°10'0 0.0
2019-Apr-16 23:29N 55°59' W 003°10'0 0.0
2019-Apr-16 22:59N 55°59' W 003°10'0 0.0
2019-Apr-16 22:29N 55°59' W 003°10'0 0.0
2019-Apr-16 21:59N 55°59' W 003°10'0 0.0
2019-Apr-16 21:29N 55°59' W 003°10'0 0.0
2019-Apr-16 20:59N 55°59' W 003°10'0 0.0
2019-Apr-16 20:26N 55°59' W 003°10'0 0.0
2019-Apr-16 19:35N 55°59' W 003°10'0 0.0
2019-Apr-16 19:29N 55°59' W 003°10'0 0.0
2019-Apr-16 18:53N 55°59' W 003°10'0 0.0
2019-Apr-16 18:29N 55°59' W 003°10'0 0.0
2019-Apr-16 17:59N 55°59' W 003°10'0 0.0
2019-Apr-16 17:08N 55°59' W 003°10'0 0.0
2019-Apr-16 16:56N 55°59' W 003°10'0 0.0
2019-Apr-16 16:20N 55°59' W 003°10'0 0.0
2019-Apr-16 15:59N 55°59' W 003°10'0 0.0
2019-Apr-16 15:26N 55°59' W 003°10'0 0.0
2019-Apr-16 14:59N 55°59' W 003°10'0 0.0
2019-Apr-16 14:29N 55°59' W 003°10'0 0.0
2019-Apr-16 13:59N 55°59' W 003°10'0 0.0
2019-Apr-16 13:29N 55°59' W 003°10'0 0.0
2019-Apr-16 12:56N 55°59' W 003°10'0 0.0
2019-Apr-16 12:29N 55°59' W 003°10'0 0.0
2019-Apr-16 11:59N 55°59' W 003°10'0 0.0
2019-Apr-16 11:29N 55°59' W 003°10'0 0.0
2019-Apr-16 10:53N 55°59' W 003°10'0 0.0
2019-Apr-16 10:26N 55°59' W 003°10'0 0.0
2019-Apr-16 09:56N 55°59' W 003°10'0 0.0
2019-Apr-16 09:29N 55°59' W 003°10'0 0.0
2019-Apr-16 08:59N 55°59' W 003°10'0 0.0
2019-Apr-16 08:29N 55°59' W 003°10'0 0.0
2019-Apr-16 07:59N 55°59' W 003°10'0 0.0
2019-Apr-16 07:29N 55°59' W 003°10'0 0.0
2019-Apr-16 06:59N 55°59' W 003°10'0 0.0
2019-Apr-16 06:29N 55°59' W 003°10'0 0.0
2019-Apr-16 05:59N 55°59' W 003°10'0 0.0
2019-Apr-16 05:29N 55°59' W 003°10'0 0.0
2019-Apr-16 04:59N 55°59' W 003°10'0 0.0
2019-Apr-16 04:29N 55°59' W 003°10'0 0.0
2019-Apr-16 03:59N 55°59' W 003°10'0 0.0
2019-Apr-16 03:29N 55°59' W 003°10'0 0.0
2019-Apr-16 02:59N 55°59' W 003°10'0 0.0
2019-Apr-16 02:29N 55°59' W 003°10'0 0.0
2019-Apr-16 01:59N 55°59' W 003°10'0 0.0
2019-Apr-16 01:29N 55°59' W 003°10'0 0.0
2019-Apr-16 00:59N 55°59' W 003°10'0 0.0
2019-Apr-16 00:29N 55°59' W 003°10'0 0.0
2019-Apr-15 23:59N 55°59' W 003°10'0 0.0
2019-Apr-15 23:29N 55°59' W 003°10'0 0.0
2019-Apr-15 22:59N 55°59' W 003°10'0 0.0
2019-Apr-15 22:29N 55°59' W 003°10'0 0.0
2019-Apr-15 21:56N 55°59' W 003°10'0 0.0
2019-Apr-15 21:29N 55°59' W 003°10'0 0.0
2019-Apr-15 20:59N 55°59' W 003°10'0 0.0
2019-Apr-15 20:29N 55°59' W 003°10'0 0.0
2019-Apr-15 19:59N 55°59' W 003°10'0 0.0
2019-Apr-15 19:29N 55°59' W 003°10'0 0.0
2019-Apr-15 18:59N 55°59' W 003°10'0 0.0
2019-Apr-15 18:29N 55°59' W 003°10'0 0.0
2019-Apr-15 17:59N 55°59' W 003°10'0 0.0
2019-Apr-15 17:29N 55°59' W 003°10'0 0.0
2019-Apr-15 16:59N 55°59' W 003°10'0 0.0
2019-Apr-15 16:29N 55°59' W 003°10'0 0.0
2019-Apr-15 15:56N 55°59' W 003°10'0 0.0
2019-Apr-15 15:29N 55°59' W 003°10'0 0.0
2019-Apr-15 14:59N 55°59' W 003°10'0 0.0
2019-Apr-15 14:29N 55°59' W 003°10'0 0.0
2019-Apr-15 13:56N 55°59' W 003°10'0 0.0
2019-Apr-15 13:29N 55°59' W 003°10'0 0.0
2019-Apr-15 12:59N 55°59' W 003°10'0 0.0
2019-Apr-15 12:29N 55°59' W 003°10'0 0.0
2019-Apr-15 11:59N 55°59' W 003°10'0 0.0
2019-Apr-15 11:29N 55°59' W 003°10'0 0.0
2019-Apr-15 10:59N 55°59' W 003°10'0 0.0
2019-Apr-15 10:29N 55°59' W 003°10'0 0.0
2019-Apr-15 09:47N 55°59' W 003°10'0 0.0
2019-Apr-15 09:29N 55°59' W 003°10'0 0.0
2019-Apr-15 08:59N 55°59' W 003°10'0 0.0
2019-Apr-15 08:29N 55°59' W 003°10'0 0.0
2019-Apr-15 07:59N 55°59' W 003°10'0 0.0
2019-Apr-15 07:26N 55°59' W 003°10'0 0.0
2019-Apr-15 06:59N 55°59' W 003°10'0 0.0
2019-Apr-15 06:29N 55°59' W 003°10'0 0.0
2019-Apr-15 05:59N 55°59' W 003°10'0 0.0
2019-Apr-15 05:29N 55°59' W 003°10'0 0.0
2019-Apr-15 04:59N 55°59' W 003°10'0 0.0
2019-Apr-15 04:08N 55°59' W 003°10'0 0.0
2019-Apr-15 03:50N 55°59' W 003°10'0 0.0
2019-Apr-15 03:14N 55°59' W 003°10'0 0.0
2019-Apr-15 02:59N 55°59' W 003°10'0 0.0
2019-Apr-15 02:29N 55°59' W 003°10'0 0.0
2019-Apr-15 01:59N 55°59' W 003°10'0 0.0
2019-Apr-15 01:29N 55°59' W 003°10'0 0.0
2019-Apr-15 00:56N 55°59' W 003°10'0 0.0
2019-Apr-15 00:29N 55°59' W 003°10'0 0.0
2019-Apr-14 23:59N 55°59' W 003°10'0 0.0
2019-Apr-14 23:29N 55°59' W 003°10'0 0.0
2019-Apr-14 22:59N 55°59' W 003°10'0 0.0
2019-Apr-14 22:29N 55°59' W 003°10'0 0.0
2019-Apr-14 21:59N 55°59' W 003°10'0 0.0
2019-Apr-14 21:29N 55°59' W 003°10'0 0.0
2019-Apr-14 20:59N 55°59' W 003°10'0 0.0
2019-Apr-14 20:29N 55°59' W 003°10'0 0.0
2019-Apr-14 19:59N 55°59' W 003°10'0 0.0
2019-Apr-14 19:29N 55°59' W 003°10'0 0.0
2019-Apr-14 18:59N 55°59' W 003°10'0 0.0
2019-Apr-14 18:26N 55°59' W 003°10'0 0.0
2019-Apr-14 17:56N 55°59' W 003°10'0 0.0
2019-Apr-14 17:29N 55°59' W 003°10'0 0.0
2019-Apr-14 16:59N 55°59' W 003°10'0 0.0
2019-Apr-14 16:29N 55°59' W 003°10'0 0.0
2019-Apr-14 15:56N 55°59' W 003°10'0 0.0
2019-Apr-14 15:29N 55°59' W 003°10'0 0.0
2019-Apr-14 14:59N 55°59' W 003°10'0 0.0
2019-Apr-14 14:29N 55°59' W 003°10'0 0.0
2019-Apr-14 13:59N 55°59' W 003°10'0 0.0
2019-Apr-14 13:29N 55°59' W 003°10'0 0.0
2019-Apr-14 12:47N 55°59' W 003°10'0 0.0
2019-Apr-14 12:05N 55°59' W 003°10'0 0.0
2019-Apr-14 11:26N 55°59' W 003°10'0 0.0
2019-Apr-14 10:56N 55°59' W 003°10'0 0.0
2019-Apr-14 10:29N 55°59' W 003°10'0 0.0
2019-Apr-14 09:59N 55°59' W 003°10'0 0.0
2019-Apr-14 09:29N 55°59' W 003°10'0 0.0
2019-Apr-14 08:41N 55°59' W 003°10'0 0.0
2019-Apr-14 08:17N 55°59' W 003°10'0 0.0
2019-Apr-14 07:59N 55°59' W 003°10'0 0.0
2019-Apr-14 07:29N 55°59' W 003°10'0 0.0
2019-Apr-14 06:59N 55°59' W 003°10'0 0.0
2019-Apr-14 06:29N 55°59' W 003°10'0 0.0
2019-Apr-14 05:59N 55°59' W 003°10'0 0.0
2019-Apr-14 05:29N 55°59' W 003°10'0 0.0
2019-Apr-14 04:56N 55°59' W 003°10'0 0.0
2019-Apr-14 04:29N 55°59' W 003°10'0 0.0
2019-Apr-14 03:59N 55°59' W 003°10'0 0.0
2019-Apr-14 03:29N 55°59' W 003°10'0 0.0
2019-Apr-14 02:59N 55°59' W 003°10'0 0.0
2019-Apr-14 02:29N 55°59' W 003°10'0 0.0
2019-Apr-14 01:59N 55°59' W 003°10'0 0.0
2019-Apr-14 01:29N 55°59' W 003°10'0 0.0
2019-Apr-14 00:59N 55°59' W 003°10'0 0.0
2019-Apr-14 00:29N 55°59' W 003°10'0 0.0
2019-Apr-13 23:59N 55°59' W 003°10'0 0.0
2019-Apr-13 23:29N 55°59' W 003°10'0 0.0
2019-Apr-13 22:56N 55°59' W 003°10'0 0.0
2019-Apr-13 22:29N 55°59' W 003°10'0 0.0
2019-Apr-13 21:59N 55°59' W 003°10'0 0.0
2019-Apr-13 21:29N 55°59' W 003°10'0 0.0
2019-Apr-13 20:59N 55°59' W 003°10'0 0.0
2019-Apr-13 20:26N 55°59' W 003°10'0 0.0
2019-Apr-13 19:59N 55°59' W 003°10'0 0.0
2019-Apr-13 19:29N 55°59' W 003°10'0 0.0
2019-Apr-13 18:59N 55°59' W 003°10'0 0.0
2019-Apr-13 18:29N 55°59' W 003°10'0 0.0
2019-Apr-13 17:56N 55°59' W 003°10'0 0.0
2019-Apr-13 17:29N 55°59' W 003°10'0 0.0
2019-Apr-13 16:59N 55°59' W 003°10'0 0.0
2019-Apr-13 16:29N 55°59' W 003°10'0 0.0
2019-Apr-13 15:59N 55°59' W 003°10'0 0.0
2019-Apr-13 15:29N 55°59' W 003°10'0 0.0
2019-Apr-13 14:59N 55°59' W 003°10'0 0.0
2019-Apr-13 14:29N 55°59' W 003°10'0 0.0
2019-Apr-13 13:59N 55°59' W 003°10'0 0.0
2019-Apr-13 13:29N 55°59' W 003°10'0 0.0
2019-Apr-13 12:59N 55°59' W 003°10'0 0.0
2019-Apr-13 12:23N 55°59' W 003°10'0 0.0
2019-Apr-13 11:59N 55°59' W 003°10'0 0.0
2019-Apr-13 11:29N 55°59' W 003°10'0 0.0
2019-Apr-13 10:59N 55°59' W 003°10'0 0.0
2019-Apr-13 10:29N 55°59' W 003°10'0 0.0
2019-Apr-13 09:59N 55°59' W 003°10'0 0.0
2019-Apr-13 09:29N 55°59' W 003°10'0 0.0
2019-Apr-13 08:59N 55°59' W 003°10'0 0.0
2019-Apr-13 08:26N 55°59' W 003°10'0 0.0
2019-Apr-13 07:44N 55°59' W 003°10'0 0.0
2019-Apr-13 07:23N 55°59' W 003°10'0 0.0
2019-Apr-13 06:59N 55°59' W 003°10'0 0.0
2019-Apr-13 06:17N 55°59' W 003°10'0 0.0
2019-Apr-13 05:53N 55°59' W 003°10'0 0.0
2019-Apr-13 05:29N 55°59' W 003°10'0 0.0
2019-Apr-13 04:59N 55°59' W 003°10'0 0.0
2019-Apr-13 04:29N 55°59' W 003°10'0 0.0
2019-Apr-13 03:59N 55°59' W 003°10'0 0.0
2019-Apr-13 03:20N 55°59' W 003°10'0 0.0
2019-Apr-13 02:50N 55°59' W 003°10'0 0.0
2019-Apr-13 02:26N 55°59' W 003°10'0 0.0
2019-Apr-13 01:59N 55°59' W 003°10'0 0.0
2019-Apr-13 01:29N 55°59' W 003°10'0 0.0
2019-Apr-13 00:59N 55°59' W 003°10'0 0.0
2019-Apr-13 00:26N 55°59' W 003°10'0 0.0
2019-Apr-12 23:59N 55°59' W 003°10'0 0.0
2019-Apr-12 23:26N 55°59' W 003°10'0 0.0
2019-Apr-12 22:56N 55°59' W 003°10'0 0.0
2019-Apr-12 22:29N 55°59' W 003°10'0 0.0
2019-Apr-12 21:59N 55°59' W 003°10'0 0.0
2019-Apr-12 21:29N 55°59' W 003°10'0 0.0
2019-Apr-12 20:59N 55°59' W 003°10'0 0.0
2019-Apr-12 20:20N 55°59' W 003°10'0 0.0
2019-Apr-12 19:59N 55°59' W 003°10'0 0.0
2019-Apr-12 19:29N 55°59' W 003°10'0 0.0
2019-Apr-12 18:32N 55°59' W 003°10'0 0.0
2019-Apr-12 18:26N 55°59' W 003°10'0 0.0
2019-Apr-12 17:59N 55°59' W 003°10'0 0.0
2019-Apr-12 17:29N 55°59' W 003°10'0 0.0
2019-Apr-12 16:59N 55°59' W 003°10'0 0.0
2019-Apr-12 16:29N 55°59' W 003°10'0 0.0
2019-Apr-12 15:59N 55°59' W 003°10'0 0.0
2019-Apr-12 15:29N 55°59' W 003°10'0 0.0
2019-Apr-12 14:59N 55°59' W 003°10'0 0.0
2019-Apr-12 14:29N 55°59' W 003°10'0 0.0
2019-Apr-12 13:59N 55°59' W 003°10'0 0.0
2019-Apr-12 13:23N 55°59' W 003°10'0 0.0
2019-Apr-12 12:59N 55°59' W 003°10'0 0.0
2019-Apr-12 12:29N 55°59' W 003°10'0 0.0
2019-Apr-12 11:41N 55°59' W 003°10'0 0.0
2019-Apr-12 08:20N 55°59' W 003°10'0 0.0
2019-Apr-12 07:59N 55°59' W 003°10'0 0.0
2019-Apr-12 07:26N 55°59' W 003°10'0 0.0
2019-Apr-12 06:59N 55°59' W 003°10'0 0.0
2019-Apr-12 06:29N 55°59' W 003°10'0 0.0
2019-Apr-12 05:56N 55°59' W 003°10'0 0.0
2019-Apr-12 05:29N 55°59' W 003°10'0 0.0
2019-Apr-12 04:53N 55°59' W 003°10'0 0.0
2019-Apr-12 04:29N 55°59' W 003°10'0 0.0
2019-Apr-12 03:59N 55°59' W 003°10'0 0.0
2019-Apr-12 03:23N 55°59' W 003°10'0 0.0
2019-Apr-12 02:23N 55°59' W 003°10'0 0.0
2019-Apr-12 01:59N 55°59' W 003°10'0 0.0
2019-Apr-12 01:23N 55°59' W 003°10'0 0.0
2019-Apr-12 00:59N 55°59' W 003°10'0 0.0
2019-Apr-12 00:29N 55°59' W 003°10'0 0.0
2019-Apr-11 23:59N 55°59' W 003°10'0 0.0
2019-Apr-11 23:29N 55°59' W 003°10'0 0.0
2019-Apr-11 22:53N 55°59' W 003°10'0 0.0
2019-Apr-11 22:29N 55°59' W 003°10'0 0.0
2019-Apr-11 21:59N 55°59' W 003°10'0 0.0
2019-Apr-11 21:29N 55°59' W 003°10'0 0.0
2019-Apr-11 20:59N 55°59' W 003°10'0 0.0
2019-Apr-11 20:29N 55°59' W 003°10'0 0.0
2019-Apr-11 19:59N 55°59' W 003°10'0 0.0
2019-Apr-11 19:29N 55°59' W 003°10'0 0.0
2019-Apr-11 18:59N 55°59' W 003°10'0 0.0
2019-Apr-11 18:26N 55°59' W 003°10'0 0.0
2019-Apr-11 17:59N 55°59' W 003°10'0 0.0
2019-Apr-11 17:29N 55°59' W 003°10'0 0.0
2019-Apr-11 16:59N 55°59' W 003°10'0 0.0
2019-Apr-11 16:29N 55°59' W 003°10'0 0.0
2019-Apr-11 15:59N 55°59' W 003°10'0 0.0
2019-Apr-11 15:29N 55°59' W 003°10'0 0.0
2019-Apr-11 14:56N 55°59' W 003°10'0 0.0
2019-Apr-11 14:29N 55°59' W 003°10'0 0.0
2019-Apr-11 13:59N 55°59' W 003°10'0 0.0
2019-Apr-11 13:29N 55°59' W 003°10'0 0.0
2019-Apr-11 12:59N 55°59' W 003°10'0 0.0
2019-Apr-11 12:29N 55°59' W 003°10'0 0.0
2019-Apr-11 11:59N 55°59' W 003°10'0 0.0
2019-Apr-11 11:20N 55°59' W 003°10'0 0.0
2019-Apr-11 10:59N 55°59' W 003°10'0 0.0
2019-Apr-11 10:26N 55°59' W 003°10'0 0.0
2019-Apr-11 09:47N 55°59' W 003°10'0 0.0
2019-Apr-11 09:29N 55°59' W 003°10'0 0.0
2019-Apr-11 08:29N 55°59' W 003°10'0 0.0
2019-Apr-11 07:53N 55°59' W 003°10'0 0.0
2019-Apr-11 07:29N 55°59' W 003°10'0 0.0
2019-Apr-11 06:59N 55°59' W 003°10'0 0.0
2019-Apr-11 06:29N 55°59' W 003°10'0 0.0
2019-Apr-11 05:59N 55°59' W 003°10'0 0.0
2019-Apr-11 05:23N 55°59' W 003°10'0 0.0
2019-Apr-11 04:59N 55°59' W 003°10'0 0.0
2019-Apr-11 04:29N 55°59' W 003°10'0 0.0
2019-Apr-11 03:59N 55°59' W 003°10'0 0.0
2019-Apr-11 03:26N 55°59' W 003°10'0 0.0
2019-Apr-11 02:41N 55°59' W 003°10'0 0.0
2019-Apr-11 02:29N 55°59' W 003°10'0 0.0
2019-Apr-11 01:53N 55°59' W 003°10'0 0.0
2019-Apr-11 01:26N 55°59' W 003°10'0 0.0
2019-Apr-11 00:59N 55°59' W 003°10'0 0.0
2019-Apr-11 00:29N 55°59' W 003°10'0 0.0
2019-Apr-10 23:59N 55°59' W 003°10'0 0.0
2019-Apr-10 23:23N 55°59' W 003°10'0 0.0
2019-Apr-10 22:59N 55°59' W 003°10'0 0.0
2019-Apr-10 22:29N 55°59' W 003°10'0 0.0
2019-Apr-10 21:53N 55°59' W 003°10'0 0.0
2019-Apr-10 21:29N 55°59' W 003°10'0 0.0
2019-Apr-10 20:59N 55°59' W 003°10'0 0.0
2019-Apr-10 20:29N 55°59' W 003°10'0 0.0
2019-Apr-10 19:59N 55°59' W 003°10'0 0.0
2019-Apr-10 19:29N 55°59' W 003°10'0 0.0
2019-Apr-10 18:59N 55°59' W 003°10'0 0.0
2019-Apr-10 18:26N 55°59' W 003°10'0 0.0
2019-Apr-10 17:59N 55°59' W 003°10'0 0.0
2019-Apr-10 17:29N 55°59' W 003°10'0 0.0
2019-Apr-10 16:59N 55°59' W 003°10'0 0.0
2019-Apr-10 16:29N 55°59' W 003°10'0 0.0
2019-Apr-10 15:47N 55°59' W 003°10'0 0.0
2019-Apr-10 15:23N 55°59' W 003°10'0 0.0
2019-Apr-10 14:59N 55°59' W 003°10'0 0.0
2019-Apr-10 14:26N 55°59' W 003°10'0 0.0
2019-Apr-10 13:59N 55°59' W 003°10'0 0.0
2019-Apr-10 13:29N 55°59' W 003°10'0 0.0
2019-Apr-10 12:59N 55°59' W 003°10'0 0.0
2019-Apr-10 12:29N 55°59' W 003°10'0 0.0
2019-Apr-10 11:59N 55°59' W 003°10'0 0.0
2019-Apr-10 11:29N 55°59' W 003°10'0 0.0
2019-Apr-10 10:59N 55°59' W 003°10'0 0.0
2019-Apr-10 10:23N 55°59' W 003°10'0 0.0
2019-Apr-10 09:59N 55°59' W 003°10'0 0.0
2019-Apr-10 09:11N 55°59' W 003°10'0 0.0
2019-Apr-10 08:59N 55°59' W 003°10'0 0.0
2019-Apr-10 08:20N 55°59' W 003°10'0 0.0
2019-Apr-10 07:47N 55°59' W 003°10'0 0.0
2019-Apr-10 07:20N 55°59' W 003°10'0 0.0
2019-Apr-10 05:05N 55°59' W 003°10'0 0.0
2019-Apr-10 04:14N 55°59' W 003°10'0 0.0
2019-Apr-10 02:32N 55°59' W 003°10'0 0.0
2019-Apr-10 01:05N 55°59' W 003°10'0 0.0
2019-Apr-10 00:56N 55°59' W 003°10'0 0.0
2019-Apr-10 00:29N 55°59' W 003°10'0 0.0
2019-Apr-09 23:59N 55°59' W 003°10'0 0.0
2019-Apr-09 23:29N 55°59' W 003°10'0 0.0
2019-Apr-09 22:59N 55°59' W 003°10'0 0.0
2019-Apr-09 22:26N 55°59' W 003°10'0 0.0
2019-Apr-09 21:59N 55°59' W 003°10'0 0.0
2019-Apr-09 21:29N 55°59' W 003°10'0 0.0
2019-Apr-09 20:59N 55°59' W 003°10'0 0.0
2019-Apr-09 20:29N 55°59' W 003°10'0 0.0
2019-Apr-09 19:53N 55°59' W 003°10'0 0.0
2019-Apr-09 19:26N 55°59' W 003°10'0 0.0
2019-Apr-09 18:59N 55°59' W 003°10'0 0.0
2019-Apr-09 18:14N 55°59' W 003°10'0 0.0
2019-Apr-09 17:59N 55°59' W 003°10'0 0.0
2019-Apr-09 17:29N 55°59' W 003°10'0 0.0
2019-Apr-09 16:56N 55°59' W 003°10'0 0.0
2019-Apr-09 16:23N 55°59' W 003°10'0 0.0
2019-Apr-09 15:53N 55°59' W 003°10'0 0.0
2019-Apr-09 15:26N 55°59' W 003°10'0 0.0
2019-Apr-09 14:59N 55°59' W 003°10'0 0.0
2019-Apr-09 14:29N 55°59' W 003°10'0 0.0
2019-Apr-09 13:59N 55°59' W 003°10'0 0.0
2019-Apr-09 13:29N 55°59' W 003°10'0 0.0
2019-Apr-09 12:59N 55°59' W 003°10'0 0.0
2019-Apr-09 12:29N 55°59' W 003°10'0 0.0
2019-Apr-09 11:56N 55°59' W 003°10'0 0.0
2019-Apr-09 11:29N 55°59' W 003°10'0 0.0
2019-Apr-09 10:59N 55°59' W 003°10'0 0.0
2019-Apr-09 10:29N 55°59' W 003°10'0 0.0
2019-Apr-09 09:53N 55°59' W 003°10'0 0.0
2019-Apr-09 09:29N 55°59' W 003°10'0 0.0
2019-Apr-09 08:59N 55°59' W 003°10'0 0.0
2019-Apr-09 08:29N 55°59' W 003°10'0 0.0
2019-Apr-09 07:59N 55°59' W 003°10'0 0.0
2019-Apr-09 07:23N 55°59' W 003°10'0 0.0
2019-Apr-09 06:59N 55°59' W 003°10'0 0.0
2019-Apr-09 06:29N 55°59' W 003°10'0 0.0
2019-Apr-09 05:56N 55°59' W 003°10'0 0.0
2019-Apr-09 05:26N 55°59' W 003°10'0 0.0
2019-Apr-09 04:59N 55°59' W 003°10'0 0.0
2019-Apr-09 04:26N 55°59' W 003°10'0 0.0
2019-Apr-09 03:59N 55°59' W 003°10'0 0.0
2019-Apr-09 03:29N 55°59' W 003°10'0 0.0
2019-Apr-09 02:59N 55°59' W 003°10'0 0.0
2019-Apr-09 02:26N 55°59' W 003°10'0 0.0
2019-Apr-09 01:56N 55°59' W 003°10'0 0.0
2019-Apr-09 01:29N 55°59' W 003°10'0 0.0
2019-Apr-09 00:56N 55°59' W 003°10'0 0.0
2019-Apr-09 00:29N 55°59' W 003°10'0 0.0
2019-Apr-08 23:59N 55°59' W 003°10'0 0.0
2019-Apr-08 23:29N 55°59' W 003°10'0 0.0
2019-Apr-08 22:59N 55°59' W 003°10'0 0.0
2019-Apr-08 22:29N 55°59' W 003°10'0 0.0
2019-Apr-08 21:59N 55°59' W 003°10'0 0.0
2019-Apr-08 21:29N 55°59' W 003°10'0 0.0
2019-Apr-08 20:56N 55°59' W 003°10'0 0.0
2019-Apr-08 20:26N 55°59' W 003°10'0 0.0
2019-Apr-08 19:56N 55°59' W 003°10'0 0.0
2019-Apr-08 19:26N 55°59' W 003°10'0 0.0
2019-Apr-08 18:56N 55°59' W 003°10'0 0.0
2019-Apr-08 18:20N 55°59' W 003°10'0 0.0
2019-Apr-08 17:56N 55°59' W 003°10'0 0.0
2019-Apr-08 17:29N 55°59' W 003°10'0 0.0
2019-Apr-08 16:56N 55°59' W 003°10'0 0.0
2019-Apr-08 16:29N 55°59' W 003°10'0 0.0
2019-Apr-08 15:59N 55°59' W 003°10'0 0.0
2019-Apr-08 15:29N 55°59' W 003°10'0 0.0
2019-Apr-08 14:50N 55°59' W 003°10'0 0.0
2019-Apr-08 14:29N 55°59' W 003°10'0 0.0
2019-Apr-08 13:59N 55°59' W 003°10'0 0.0
2019-Apr-08 13:05N 55°59' W 003°10'0 0.0
2019-Apr-08 12:59N 55°59' W 003°10'0 0.0
2019-Apr-08 12:29N 55°59' W 003°10'0 0.0
2019-Apr-08 11:59N 55°59' W 003°10'0 0.0
2019-Apr-08 11:29N 55°59' W 003°10'0 0.0
2019-Apr-08 10:56N 55°59' W 003°10'  

Dump ship's entire track history